Airfield :
LOGIN :

Register | Disclaimer

   EN    FR    IT 

 










Legend :    VFR   Marginal VFR   IFR   Intensive IFR   Very Intensive IFR
Visi :
Ceiling :
>= 8 km
>= 3000ft
5 to 8 km
1000 to 3000 ft
1500m to 5 km
500 to 1000 ft
800 to 1500m
200 to 500 ft
< 800m
< 200 ft
Symbols :   Thunderstorms  Fog  Heavy snow  Heavy precipitations  Wind > 20 kt
SIGMETs :     Misc.  Thunderstorms  Icing  Turbulence  Mountain Waves  Volcanic Ashes







- Airport Elevation : 464 ft
- IATA code : EVX
- Download approach charts


LFOE - Evreux

CURRENT METAR :
  • 231800Z AUTO 27006KT 9999 SCT032 BKN042 OVC048 11/08 Q1010

EXPIRED METARs :
  • 231730Z AUTO 24005KT 9999 BKN031 BKN039 11/08 Q1009
  • 231700Z AUTO 23006KT 9999 BKN029 BKN036 OVC052 11/08 Q1009
  • 231630Z AUTO 24007KT 9999 BKN030 OVC050 12/08 Q1008
  • 231600Z AUTO 24005KT 9999 BKN035 BKN048 BKN058 12/08 Q1008
  • 231530Z AUTO 27008KT 9999 FEW024 SCT032 12/08 Q1008

TAF TAF LFOE
Valid from the 23 at 15:00 until the 24 at 15:00 UTC


231400Z 2315/2415 27008KT 9999 SCT020 BKN040
BECMG 2322/2324 20015G25KT BKN014
TEMPO 2400/2406 20025G40KT 4000 RA BKN010
BECMG 2406/2408 27008KT BKN030
No reported NOTAMs for that airfield.



MET'MAP, your aeronautical weather chart ! - Copyright ORBIFLY December 2007 - Disclaimer

ORBIFLY MET'MAP TEAM :

Programming & Development : Alexandra Zaïnal
Concept & Development : Baudouin d'Aumeries
Co-Development & Prog : Marc-Olivier Méhu
Technical & hardware support : Manuel Goepfert

Contact : metmap@orbifly.com




SOURCES & CREDITS :

   NOAA